Alegria — LE9325 — position and weather

sailwx.info

Track history (hours):
 
Tides and Currents Weather Stations Pressure Air Temp Water Temp Dewpoint Dewpoint Depression Visibility Wind Speed Wind Dir Waves Ship Positions

Alegria

Last reported at 2017-Aug-23 14:00 UTC. Time now 2017-Aug-23 17:25 UTC.
Position N 57°46' E 011°37'.

Length 11 m.

Type: Pleasure craft. MMSI: 258532510.

Date/timePositionNaut miles runAvg speedWind from/ knotsBaromVisibWave heightAir tempDewpointWater temp
2017-Aug-23 14:00N 57°46' E 011°37'2 4.5
2017-Aug-23 13:29N 57°46' E 011°41'2 3.2
2017-Aug-23 13:00N 57°44' E 011°43'3 6.0
2017-Aug-23 12:29N 57°41' E 011°42'3 5.1
2017-Aug-23 11:59N 57°39' E 011°42'2 4.9
2017-Aug-23 11:30N 57°36' E 011°42'3 5.5
2017-Aug-23 11:00N 57°34' E 011°42'3 6.2
2017-Aug-23 10:30N 57°31' E 011°42'  
2017-Aug-19 09:44N 56°05' E 012°38'1 6.0
2017-Aug-19 09:30N 56°03' E 012°39'3 6.5
2017-Aug-19 09:01N 56°00' E 012°39'3 6.6
2017-Aug-19 08:30N 55°57' E 012°38'3 5.6
2017-Aug-19 08:00N 55°54' E 012°38'3 5.7
2017-Aug-19 07:30N 55°51' E 012°38'3 5.2
2017-Aug-19 07:00N 55°49' E 012°38'3 5.2
2017-Aug-19 06:30N 55°46' E 012°38'2 5.0
2017-Aug-19 06:00N 55°44' E 012°39'2 4.8
2017-Aug-19 05:30N 55°41' E 012°37'  
2017-Aug-15 17:41N 55°41' E 012°37'0 1.0
2017-Aug-15 17:30N 55°41' E 012°37'3 5.8
2017-Aug-15 17:00N 55°39' E 012°41'4 7.3
2017-Aug-15 16:30N 55°36' E 012°42'4 7.1
2017-Aug-15 16:00N 55°32' E 012°43'  
Track history (hours):
 
Tides and Currents Weather Stations Pressure Air Temp Water Temp Dewpoint Dewpoint Depression Visibility Wind Speed Wind Dir Waves Ship Positions

Alegria

Last reported at 2017-Aug-23 14:00 UTC. Time now 2017-Aug-23 17:25 UTC.
Position N 57°46' E 011°37'.

Length 11 m.

Type: Pleasure craft. MMSI: 258532510.

Date/timePositionNaut miles runAvg speedWind from/ knotsBaromVisibWave heightAir tempDewpointWater temp
2017-Aug-23 14:00N 57°46' E 011°37'2 4.5
2017-Aug-23 13:29N 57°46' E 011°41'2 3.2
2017-Aug-23 13:00N 57°44' E 011°43'3 6.0
2017-Aug-23 12:29N 57°41' E 011°42'3 5.1
2017-Aug-23 11:59N 57°39' E 011°42'2 4.9
2017-Aug-23 11:30N 57°36' E 011°42'3 5.5
2017-Aug-23 11:00N 57°34' E 011°42'3 6.2
2017-Aug-23 10:30N 57°31' E 011°42'  
2017-Aug-19 09:44N 56°05' E 012°38'1 6.0
2017-Aug-19 09:30N 56°03' E 012°39'3 6.5
2017-Aug-19 09:01N 56°00' E 012°39'3 6.6
2017-Aug-19 08:30N 55°57' E 012°38'3 5.6
2017-Aug-19 08:00N 55°54' E 012°38'3 5.7
2017-Aug-19 07:30N 55°51' E 012°38'3 5.2
2017-Aug-19 07:00N 55°49' E 012°38'3 5.2
2017-Aug-19 06:30N 55°46' E 012°38'2 5.0
2017-Aug-19 06:00N 55°44' E 012°39'2 4.8
2017-Aug-19 05:30N 55°41' E 012°37'  
2017-Aug-15 17:41N 55°41' E 012°37'0 1.0
2017-Aug-15 17:30N 55°41' E 012°37'3 5.8
2017-Aug-15 17:00N 55°39' E 012°41'4 7.3
2017-Aug-15 16:30N 55°36' E 012°42'4 7.1
2017-Aug-15 16:00N 55°32' E 012°43'  

Dump ship's entire track history